sensor_id;sensor_type;location;lat;lon;timestamp;P1;durP1;ratioP1;P2;durP2;ratioP2
25868;SDS011;13688;53.154;18.136;2022-10-15T00:04:33;57.10;;;34.47;;
25868;SDS011;13688;53.154;18.136;2022-10-15T00:09:55;59.88;;;36.08;;
25868;SDS011;13688;53.154;18.136;2022-10-15T00:15:17;55.98;;;34.25;;
25868;SDS011;13688;53.154;18.136;2022-10-15T00:20:40;59.57;;;35.20;;
25868;SDS011;13688;53.154;18.136;2022-10-15T00:26:20;54.87;;;35.40;;
25868;SDS011;13688;53.154;18.136;2022-10-15T00:31:40;55.43;;;35.35;;
25868;SDS011;13688;53.154;18.136;2022-10-15T00:37:03;61.27;;;36.53;;
25868;SDS011;13688;53.154;18.136;2022-10-15T00:42:25;58.00;;;36.10;;
25868;SDS011;13688;53.154;18.136;2022-10-15T00:47:47;62.27;;;36.60;;
25868;SDS011;13688;53.154;18.136;2022-10-15T00:53:10;59.17;;;35.93;;
25868;SDS011;13688;53.154;18.136;2022-10-15T00:58:32;58.20;;;36.23;;
25868;SDS011;13688;53.154;18.136;2022-10-15T01:03:56;66.00;;;37.10;;
25868;SDS011;13688;53.154;18.136;2022-10-15T01:09:22;60.23;;;38.73;;
25868;SDS011;13688;53.154;18.136;2022-10-15T01:14:50;58.07;;;36.10;;
25868;SDS011;13688;53.154;18.136;2022-10-15T01:20:54;63.20;;;36.90;;
25868;SDS011;13688;53.154;18.136;2022-10-15T01:26:46;67.12;;;39.08;;
25868;SDS011;13688;53.154;18.136;2022-10-15T01:32:19;60.10;;;37.78;;
25868;SDS011;13688;53.154;18.136;2022-10-15T01:37:52;62.20;;;39.23;;
25868;SDS011;13688;53.154;18.136;2022-10-15T01:43:23;64.17;;;37.78;;
25868;SDS011;13688;53.154;18.136;2022-10-15T01:48:54;68.28;;;39.88;;
25868;SDS011;13688;53.154;18.136;2022-10-15T01:54:20;61.40;;;36.00;;
25868;SDS011;13688;53.154;18.136;2022-10-15T01:59:44;62.08;;;38.45;;
25868;SDS011;13688;53.154;18.136;2022-10-15T02:05:08;62.60;;;39.38;;
25868;SDS011;13688;53.154;18.136;2022-10-15T02:10:41;67.03;;;40.93;;
25868;SDS011;13688;53.154;18.136;2022-10-15T02:16:11;64.40;;;39.27;;
25868;SDS011;13688;53.154;18.136;2022-10-15T02:27:17;66.77;;;40.70;;
25868;SDS011;13688;53.154;18.136;2022-10-15T02:32:52;77.83;;;43.50;;
25868;SDS011;13688;53.154;18.136;2022-10-15T02:38:17;75.97;;;44.63;;
25868;SDS011;13688;53.154;18.136;2022-10-15T02:43:40;66.53;;;40.13;;
25868;SDS011;13688;53.154;18.136;2022-10-15T02:49:03;71.30;;;41.87;;
25868;SDS011;13688;53.154;18.136;2022-10-15T02:54:26;62.20;;;40.30;;
25868;SDS011;13688;53.154;18.136;2022-10-15T02:59:48;65.80;;;40.03;;
25868;SDS011;13688;53.154;18.136;2022-10-15T03:05:12;61.80;;;40.20;;
25868;SDS011;13688;53.154;18.136;2022-10-15T03:10:34;66.90;;;41.03;;
25868;SDS011;13688;53.154;18.136;2022-10-15T03:15:57;65.03;;;40.77;;
25868;SDS011;13688;53.154;18.136;2022-10-15T03:21:23;68.47;;;41.47;;
25868;SDS011;13688;53.154;18.136;2022-10-15T03:26:46;71.50;;;40.67;;
25868;SDS011;13688;53.154;18.136;2022-10-15T03:32:08;65.20;;;39.37;;
25868;SDS011;13688;53.154;18.136;2022-10-15T03:37:32;64.37;;;39.67;;
25868;SDS011;13688;53.154;18.136;2022-10-15T03:42:54;63.60;;;39.78;;
25868;SDS011;13688;53.154;18.136;2022-10-15T03:48:17;72.00;;;41.60;;
25868;SDS011;13688;53.154;18.136;2022-10-15T03:53:39;70.92;;;43.25;;
25868;SDS011;13688;53.154;18.136;2022-10-15T03:59:02;68.00;;;41.53;;
25868;SDS011;13688;53.154;18.136;2022-10-15T04:04:24;65.63;;;43.40;;
25868;SDS011;13688;53.154;18.136;2022-10-15T04:09:46;73.83;;;43.90;;
25868;SDS011;13688;53.154;18.136;2022-10-15T04:15:08;69.30;;;44.80;;
25868;SDS011;13688;53.154;18.136;2022-10-15T04:20:32;71.20;;;43.70;;
25868;SDS011;13688;53.154;18.136;2022-10-15T04:25:57;71.63;;;43.73;;
25868;SDS011;13688;53.154;18.136;2022-10-15T04:31:18;69.37;;;42.70;;
25868;SDS011;13688;53.154;18.136;2022-10-15T04:36:40;69.43;;;43.37;;
25868;SDS011;13688;53.154;18.136;2022-10-15T04:42:02;72.50;;;43.28;;
25868;SDS011;13688;53.154;18.136;2022-10-15T04:47:25;68.42;;;41.20;;
25868;SDS011;13688;53.154;18.136;2022-10-15T04:52:47;63.33;;;41.40;;
25868;SDS011;13688;53.154;18.136;2022-10-15T04:58:09;65.07;;;41.87;;
25868;SDS011;13688;53.154;18.136;2022-10-15T05:03:32;71.13;;;43.07;;
25868;SDS011;13688;53.154;18.136;2022-10-15T05:08:58;62.55;;;40.50;;
25868;SDS011;13688;53.154;18.136;2022-10-15T05:14:20;66.60;;;42.00;;
25868;SDS011;13688;53.154;18.136;2022-10-15T05:19:44;58.73;;;39.50;;
25868;SDS011;13688;53.154;18.136;2022-10-15T05:25:06;65.03;;;40.57;;
25868;SDS011;13688;53.154;18.136;2022-10-15T05:30:30;65.67;;;40.58;;
25868;SDS011;13688;53.154;18.136;2022-10-15T05:35:52;61.07;;;39.60;;
25868;SDS011;13688;53.154;18.136;2022-10-15T05:41:29;61.80;;;39.70;;
25868;SDS011;13688;53.154;18.136;2022-10-15T05:46:52;60.00;;;38.60;;
25868;SDS011;13688;53.154;18.136;2022-10-15T05:52:14;60.90;;;39.80;;
25868;SDS011;13688;53.154;18.136;2022-10-15T05:57:37;59.18;;;39.27;;
25868;SDS011;13688;53.154;18.136;2022-10-15T06:03:00;56.98;;;37.15;;
25868;SDS011;13688;53.154;18.136;2022-10-15T06:08:24;76.43;;;44.57;;
25868;SDS011;13688;53.154;18.136;2022-10-15T06:13:47;88.62;;;51.30;;
25868;SDS011;13688;53.154;18.136;2022-10-15T06:19:09;85.63;;;53.50;;
25868;SDS011;13688;53.154;18.136;2022-10-15T06:24:32;77.37;;;48.10;;
25868;SDS011;13688;53.154;18.136;2022-10-15T06:29:54;70.37;;;43.98;;
25868;SDS011;13688;53.154;18.136;2022-10-15T06:35:17;64.45;;;41.10;;
25868;SDS011;13688;53.154;18.136;2022-10-15T06:40:42;61.03;;;39.73;;
25868;SDS011;13688;53.154;18.136;2022-10-15T06:46:05;66.47;;;38.13;;
25868;SDS011;13688;53.154;18.136;2022-10-15T06:51:27;59.10;;;38.50;;
25868;SDS011;13688;53.154;18.136;2022-10-15T06:56:49;60.63;;;37.67;;
25868;SDS011;13688;53.154;18.136;2022-10-15T07:02:11;54.57;;;36.57;;
25868;SDS011;13688;53.154;18.136;2022-10-15T07:07:34;61.00;;;37.58;;
25868;SDS011;13688;53.154;18.136;2022-10-15T07:13:03;60.40;;;35.77;;
25868;SDS011;13688;53.154;18.136;2022-10-15T07:18:25;55.88;;;36.33;;
25868;SDS011;13688;53.154;18.136;2022-10-15T07:23:48;58.37;;;36.03;;
25868;SDS011;13688;53.154;18.136;2022-10-15T07:29:11;56.18;;;35.52;;
25868;SDS011;13688;53.154;18.136;2022-10-15T07:34:34;54.73;;;35.93;;
25868;SDS011;13688;53.154;18.136;2022-10-15T07:39:56;54.30;;;36.00;;
25868;SDS011;13688;53.154;18.136;2022-10-15T07:45:18;52.95;;;36.10;;
25868;SDS011;13688;53.154;18.136;2022-10-15T07:50:42;53.60;;;33.53;;
25868;SDS011;13688;53.154;18.136;2022-10-15T07:56:13;55.10;;;32.77;;
25868;SDS011;13688;53.154;18.136;2022-10-15T08:01:36;53.75;;;31.75;;
25868;SDS011;13688;53.154;18.136;2022-10-15T08:06:58;53.73;;;30.73;;
25868;SDS011;13688;53.154;18.136;2022-10-15T08:12:20;49.73;;;31.50;;
25868;SDS011;13688;53.154;18.136;2022-10-15T08:17:43;48.77;;;30.77;;
25868;SDS011;13688;53.154;18.136;2022-10-15T08:23:05;45.40;;;29.57;;
25868;SDS011;13688;53.154;18.136;2022-10-15T08:28:32;47.17;;;30.48;;
25868;SDS011;13688;53.154;18.136;2022-10-15T08:33:54;50.00;;;29.17;;
25868;SDS011;13688;53.154;18.136;2022-10-15T08:39:18;45.10;;;29.20;;
25868;SDS011;13688;53.154;18.136;2022-10-15T08:44:40;53.80;;;30.80;;
25868;SDS011;13688;53.154;18.136;2022-10-15T08:56:16;49.18;;;28.60;;
25868;SDS011;13688;53.154;18.136;2022-10-15T09:01:50;46.93;;;28.97;;
25868;SDS011;13688;53.154;18.136;2022-10-15T09:07:25;44.00;;;27.07;;
25868;SDS011;13688;53.154;18.136;2022-10-15T09:13:02;46.02;;;27.67;;
25868;SDS011;13688;53.154;18.136;2022-10-15T09:18:36;42.70;;;27.55;;
25868;SDS011;13688;53.154;18.136;2022-10-15T09:24:01;47.05;;;26.82;;
25868;SDS011;13688;53.154;18.136;2022-10-15T09:29:32;40.07;;;27.20;;
25868;SDS011;13688;53.154;18.136;2022-10-15T09:35:17;38.67;;;25.70;;
25868;SDS011;13688;53.154;18.136;2022-10-15T09:41:01;38.73;;;26.40;;
25868;SDS011;13688;53.154;18.136;2022-10-15T09:46:54;37.75;;;26.23;;
25868;SDS011;13688;53.154;18.136;2022-10-15T09:52:27;47.08;;;25.27;;
25868;SDS011;13688;53.154;18.136;2022-10-15T09:59:01;38.13;;;26.45;;
25868;SDS011;13688;53.154;18.136;2022-10-15T10:09:47;36.88;;;24.20;;
25868;SDS011;13688;53.154;18.136;2022-10-15T10:15:25;39.20;;;26.07;;
25868;SDS011;13688;53.154;18.136;2022-10-15T10:20:40;42.13;;;27.15;;
25868;SDS011;13688;53.154;18.136;2022-10-15T10:26:16;46.00;;;27.47;;
25868;SDS011;13688;53.154;18.136;2022-10-15T10:31:40;46.18;;;29.37;;
25868;SDS011;13688;53.154;18.136;2022-10-15T10:37:04;41.57;;;27.80;;
25868;SDS011;13688;53.154;18.136;2022-10-15T10:42:31;44.93;;;28.13;;
25868;SDS011;13688;53.154;18.136;2022-10-15T10:47:55;43.90;;;28.95;;
25868;SDS011;13688;53.154;18.136;2022-10-15T10:58:56;45.13;;;27.73;;
25868;SDS011;13688;53.154;18.136;2022-10-15T11:04:22;50.73;;;29.02;;
25868;SDS011;13688;53.154;18.136;2022-10-15T11:09:50;44.58;;;29.55;;
25868;SDS011;13688;53.154;18.136;2022-10-15T11:15:29;43.80;;;28.57;;
25868;SDS011;13688;53.154;18.136;2022-10-15T11:21:27;45.20;;;28.23;;
25868;SDS011;13688;53.154;18.136;2022-10-15T11:32:48;47.48;;;28.57;;
25868;SDS011;13688;53.154;18.136;2022-10-15T11:38:34;48.07;;;31.10;;
25868;SDS011;13688;53.154;18.136;2022-10-15T11:50:40;49.53;;;31.57;;
25868;SDS011;13688;53.154;18.136;2022-10-15T11:56:24;40.17;;;27.53;;
25868;SDS011;13688;53.154;18.136;2022-10-15T12:01:51;39.40;;;28.00;;
25868;SDS011;13688;53.154;18.136;2022-10-15T12:07:20;39.77;;;27.37;;
25868;SDS011;13688;53.154;18.136;2022-10-15T12:18:49;43.50;;;26.93;;
25868;SDS011;13688;53.154;18.136;2022-10-15T12:30:12;43.47;;;29.47;;
25868;SDS011;13688;53.154;18.136;2022-10-15T12:35:41;48.57;;;29.50;;
25868;SDS011;13688;53.154;18.136;2022-10-15T12:41:13;43.47;;;27.60;;
25868;SDS011;13688;53.154;18.136;2022-10-15T12:46:49;40.83;;;26.93;;
25868;SDS011;13688;53.154;18.136;2022-10-15T12:58:38;42.73;;;28.67;;
25868;SDS011;13688;53.154;18.136;2022-10-15T13:04:02;45.70;;;29.00;;
25868;SDS011;13688;53.154;18.136;2022-10-15T13:09:28;38.57;;;25.37;;
25868;SDS011;13688;53.154;18.136;2022-10-15T13:14:54;40.93;;;26.97;;
25868;SDS011;13688;53.154;18.136;2022-10-15T13:26:16;39.30;;;26.03;;
25868;SDS011;13688;53.154;18.136;2022-10-15T13:31:42;38.83;;;26.07;;
25868;SDS011;13688;53.154;18.136;2022-10-15T13:37:12;37.43;;;25.43;;
25868;SDS011;13688;53.154;18.136;2022-10-15T13:42:34;34.73;;;25.07;;
25868;SDS011;13688;53.154;18.136;2022-10-15T13:48:12;35.13;;;24.57;;
25868;SDS011;13688;53.154;18.136;2022-10-15T13:53:41;33.35;;;23.90;;
25868;SDS011;13688;53.154;18.136;2022-10-15T13:59:04;40.73;;;26.97;;
25868;SDS011;13688;53.154;18.136;2022-10-15T14:04:30;41.15;;;26.70;;
25868;SDS011;13688;53.154;18.136;2022-10-15T14:09:53;37.37;;;27.03;;
25868;SDS011;13688;53.154;18.136;2022-10-15T14:21:13;49.03;;;34.10;;
25868;SDS011;13688;53.154;18.136;2022-10-15T14:26:38;39.48;;;27.02;;
25868;SDS011;13688;53.154;18.136;2022-10-15T14:32:01;38.60;;;26.80;;
25868;SDS011;13688;53.154;18.136;2022-10-15T14:38:03;39.73;;;26.97;;
25868;SDS011;13688;53.154;18.136;2022-10-15T14:43:28;40.10;;;27.17;;
25868;SDS011;13688;53.154;18.136;2022-10-15T14:48:51;39.73;;;27.55;;
25868;SDS011;13688;53.154;18.136;2022-10-15T14:54:20;37.45;;;24.95;;
25868;SDS011;13688;53.154;18.136;2022-10-15T14:59:47;35.45;;;25.72;;
25868;SDS011;13688;53.154;18.136;2022-10-15T15:10:38;36.20;;;24.98;;
25868;SDS011;13688;53.154;18.136;2022-10-15T15:16:03;38.58;;;24.50;;
25868;SDS011;13688;53.154;18.136;2022-10-15T15:21:27;37.05;;;25.12;;
25868;SDS011;13688;53.154;18.136;2022-10-15T15:26:50;32.80;;;23.73;;
25868;SDS011;13688;53.154;18.136;2022-10-15T15:32:12;36.65;;;24.10;;
25868;SDS011;13688;53.154;18.136;2022-10-15T15:37:35;33.92;;;22.98;;
25868;SDS011;13688;53.154;18.136;2022-10-15T15:42:57;35.30;;;22.82;;
25868;SDS011;13688;53.154;18.136;2022-10-15T15:48:24;37.40;;;24.67;;
25868;SDS011;13688;53.154;18.136;2022-10-15T15:53:47;40.67;;;25.57;;
25868;SDS011;13688;53.154;18.136;2022-10-15T15:59:12;40.45;;;26.97;;
25868;SDS011;13688;53.154;18.136;2022-10-15T16:04:34;30.55;;;22.45;;
25868;SDS011;13688;53.154;18.136;2022-10-15T16:09:57;43.95;;;22.85;;
25868;SDS011;13688;53.154;18.136;2022-10-15T16:15:23;32.85;;;21.65;;
25868;SDS011;13688;53.154;18.136;2022-10-15T16:20:45;34.92;;;22.42;;
25868;SDS011;13688;53.154;18.136;2022-10-15T16:26:09;33.75;;;22.67;;
25868;SDS011;13688;53.154;18.136;2022-10-15T16:31:32;33.80;;;21.97;;
25868;SDS011;13688;53.154;18.136;2022-10-15T16:36:54;33.15;;;21.93;;
25868;SDS011;13688;53.154;18.136;2022-10-15T16:42:16;29.00;;;21.15;;
25868;SDS011;13688;53.154;18.136;2022-10-15T16:47:39;34.53;;;21.67;;
25868;SDS011;13688;53.154;18.136;2022-10-15T16:53:02;28.80;;;19.95;;
25868;SDS011;13688;53.154;18.136;2022-10-15T16:58:25;31.42;;;20.85;;
25868;SDS011;13688;53.154;18.136;2022-10-15T17:03:49;29.87;;;19.73;;
25868;SDS011;13688;53.154;18.136;2022-10-15T17:09:16;35.52;;;20.35;;
25868;SDS011;13688;53.154;18.136;2022-10-15T17:14:38;30.85;;;20.08;;
25868;SDS011;13688;53.154;18.136;2022-10-15T17:20:07;32.20;;;20.70;;
25868;SDS011;13688;53.154;18.136;2022-10-15T17:25:30;32.13;;;20.35;;
25868;SDS011;13688;53.154;18.136;2022-10-15T17:30:52;30.55;;;20.05;;
25868;SDS011;13688;53.154;18.136;2022-10-15T17:36:21;32.78;;;20.52;;
25868;SDS011;13688;53.154;18.136;2022-10-15T17:41:49;33.97;;;20.83;;
25868;SDS011;13688;53.154;18.136;2022-10-15T17:47:11;32.28;;;20.52;;
25868;SDS011;13688;53.154;18.136;2022-10-15T17:52:34;29.63;;;19.03;;
25868;SDS011;13688;53.154;18.136;2022-10-15T17:57:59;30.25;;;19.45;;
25868;SDS011;13688;53.154;18.136;2022-10-15T18:03:23;28.23;;;19.80;;
25868;SDS011;13688;53.154;18.136;2022-10-15T18:08:46;32.98;;;20.70;;
25868;SDS011;13688;53.154;18.136;2022-10-15T18:14:10;31.65;;;20.17;;
25868;SDS011;13688;53.154;18.136;2022-10-15T18:19:33;28.70;;;19.98;;
25868;SDS011;13688;53.154;18.136;2022-10-15T18:24:55;31.42;;;22.93;;
25868;SDS011;13688;53.154;18.136;2022-10-15T18:30:18;40.40;;;24.50;;
25868;SDS011;13688;53.154;18.136;2022-10-15T18:35:40;35.48;;;21.37;;
25868;SDS011;13688;53.154;18.136;2022-10-15T18:41:10;33.15;;;21.57;;
25868;SDS011;13688;53.154;18.136;2022-10-15T18:46:31;37.50;;;22.73;;
25868;SDS011;13688;53.154;18.136;2022-10-15T18:51:54;36.00;;;22.60;;
25868;SDS011;13688;53.154;18.136;2022-10-15T18:57:18;37.50;;;22.43;;
25868;SDS011;13688;53.154;18.136;2022-10-15T19:02:42;36.68;;;23.55;;
25868;SDS011;13688;53.154;18.136;2022-10-15T19:08:04;34.20;;;22.62;;
25868;SDS011;13688;53.154;18.136;2022-10-15T19:13:26;35.77;;;23.63;;
25868;SDS011;13688;53.154;18.136;2022-10-15T19:18:49;34.53;;;23.07;;
25868;SDS011;13688;53.154;18.136;2022-10-15T19:24:12;35.97;;;22.47;;
25868;SDS011;13688;53.154;18.136;2022-10-15T19:29:36;40.65;;;25.15;;
25868;SDS011;13688;53.154;18.136;2022-10-15T19:34:59;32.58;;;23.42;;
25868;SDS011;13688;53.154;18.136;2022-10-15T19:40:21;40.77;;;26.17;;
25868;SDS011;13688;53.154;18.136;2022-10-15T19:45:49;39.20;;;25.40;;
25868;SDS011;13688;53.154;18.136;2022-10-15T19:51:12;49.33;;;28.62;;
25868;SDS011;13688;53.154;18.136;2022-10-15T19:56:34;47.63;;;28.90;;
25868;SDS011;13688;53.154;18.136;2022-10-15T20:01:57;47.20;;;31.52;;
25868;SDS011;13688;53.154;18.136;2022-10-15T20:07:21;48.00;;;32.30;;
25868;SDS011;13688;53.154;18.136;2022-10-15T20:12:43;44.73;;;31.07;;
25868;SDS011;13688;53.154;18.136;2022-10-15T20:18:05;42.07;;;26.87;;
25868;SDS011;13688;53.154;18.136;2022-10-15T20:23:28;39.27;;;26.62;;
25868;SDS011;13688;53.154;18.136;2022-10-15T20:28:52;46.00;;;28.87;;
25868;SDS011;13688;53.154;18.136;2022-10-15T20:34:17;41.60;;;27.83;;
25868;SDS011;13688;53.154;18.136;2022-10-15T20:39:42;47.67;;;32.00;;
25868;SDS011;13688;53.154;18.136;2022-10-15T20:45:10;49.07;;;31.00;;
25868;SDS011;13688;53.154;18.136;2022-10-15T20:50:30;47.48;;;30.75;;
25868;SDS011;13688;53.154;18.136;2022-10-15T20:55:53;45.78;;;29.02;;
25868;SDS011;13688;53.154;18.136;2022-10-15T21:01:16;41.60;;;28.38;;
25868;SDS011;13688;53.154;18.136;2022-10-15T21:06:38;40.03;;;27.17;;
25868;SDS011;13688;53.154;18.136;2022-10-15T21:12:00;39.07;;;26.43;;
25868;SDS011;13688;53.154;18.136;2022-10-15T21:17:23;43.77;;;27.20;;
25868;SDS011;13688;53.154;18.136;2022-10-15T21:22:45;41.30;;;27.97;;
25868;SDS011;13688;53.154;18.136;2022-10-15T21:28:08;43.30;;;28.38;;
25868;SDS011;13688;53.154;18.136;2022-10-15T21:33:30;40.17;;;26.87;;
25868;SDS011;13688;53.154;18.136;2022-10-15T21:38:54;46.05;;;28.27;;
25868;SDS011;13688;53.154;18.136;2022-10-15T21:44:19;43.83;;;30.23;;
25868;SDS011;13688;53.154;18.136;2022-10-15T21:49:41;44.10;;;29.07;;
25868;SDS011;13688;53.154;18.136;2022-10-15T21:55:03;50.53;;;31.30;;
25868;SDS011;13688;53.154;18.136;2022-10-15T22:00:27;47.67;;;29.10;;
25868;SDS011;13688;53.154;18.136;2022-10-15T22:05:49;49.67;;;30.72;;
25868;SDS011;13688;53.154;18.136;2022-10-15T22:16:46;45.25;;;31.00;;
25868;SDS011;13688;53.154;18.136;2022-10-15T22:22:08;42.60;;;30.68;;
25868;SDS011;13688;53.154;18.136;2022-10-15T22:27:30;47.45;;;30.20;;
25868;SDS011;13688;53.154;18.136;2022-10-15T22:32:53;46.28;;;30.05;;
25868;SDS011;13688;53.154;18.136;2022-10-15T22:38:16;43.80;;;28.87;;
25868;SDS011;13688;53.154;18.136;2022-10-15T22:43:38;40.70;;;28.90;;
25868;SDS011;13688;53.154;18.136;2022-10-15T22:49:01;42.73;;;29.55;;
25868;SDS011;13688;53.154;18.136;2022-10-15T22:54:26;43.08;;;28.57;;
25868;SDS011;13688;53.154;18.136;2022-10-15T22:59:50;42.67;;;29.55;;
25868;SDS011;13688;53.154;18.136;2022-10-15T23:05:12;52.67;;;29.67;;
25868;SDS011;13688;53.154;18.136;2022-10-15T23:10:34;39.38;;;28.52;;
25868;SDS011;13688;53.154;18.136;2022-10-15T23:16:13;44.58;;;29.35;;
25868;SDS011;13688;53.154;18.136;2022-10-15T23:27:10;43.15;;;31.25;;
25868;SDS011;13688;53.154;18.136;2022-10-15T23:32:33;46.92;;;32.25;;
25868;SDS011;13688;53.154;18.136;2022-10-15T23:37:55;42.80;;;30.43;;
25868;SDS011;13688;53.154;18.136;2022-10-15T23:43:18;41.77;;;31.82;;
25868;SDS011;13688;53.154;18.136;2022-10-15T23:48:40;45.67;;;32.45;;
25868;SDS011;13688;53.154;18.136;2022-10-15T23:54:03;48.10;;;31.87;;
25868;SDS011;13688;53.154;18.136;2022-10-15T23:59:27;44.27;;;31.87;;
